• Join FlightAware (Why Join?)
  • Login
  • US Flag 
06:18AM EDT


 

Airport Tracker/Info


-or-


 

Live Flight TrackerFlight Track Log ✈ EJA721P ✈ 28-Jun-2013 ✈ KTYS - KCHS

Flight Track Log - Related Links

Times and Time Zones

All times are in EDT time to prevent confusion due to time zone crossing. See the EJA721P flight status page for this flight to view local times or setup timezone preferences in your user account.

Time Position Orientation Groundspeed Altitude Reporting Facility
EDT Latitude Longitude Course Direction KTS MPH feet Rate Location/Type
01:11AM 35.7286 -84.0439 130° Southeast 262 302 5,000  Level Atlanta Center
01:12AM 35.6764 -83.9672 130° Southeast 233 268 8,300 3,180 Climbing Atlanta Center
01:13AM 35.6264 -83.8803 125° Southeast 257 296 11,400 3,120 Climbing Atlanta Center
01:14AM 35.5678 -83.7833 127° Southeast 305 351 14,600 3,240 Climbing Atlanta Center
01:15AM 35.5069 -83.6817 126° Southeast 351 404 17,900 3,000 Climbing Atlanta Center
01:16AM 35.4419 -83.5775 127° Southeast 374 430 20,700 2,640 Climbing Atlanta Center
01:17AM 35.3747 -83.4656 126° Southeast 393 452 23,200 2,460 Climbing Atlanta Center
01:18AM 35.3053 -83.3517 127° Southeast 408 470 25,700 2,640 Climbing Atlanta Center
01:19AM 35.2272 -83.2225 126° Southeast 424 488 28,500 1,620 Climbing Atlanta Center
01:20AM 35.1536 -83.1064 128° Southeast 429 494 29,000 240 Climbing Atlanta Center
01:21AM 35.0753 -82.9753 126° Southeast 451 519 29,000  Level Atlanta Center
01:22AM 34.9969 -82.8497 127° Southeast 463 533 29,000  Level Atlanta Center
01:23AM 34.9183 -82.7267 128° Southeast 463 533 29,000  Level Atlanta Center
01:24AM 34.8419 -82.6014 127° Southeast 463 533 29,000  Level Atlanta Center
01:25AM 34.7653 -82.4761 127° Southeast 458 527 29,000  Level Atlanta Center
01:27AM 34.6297 -82.2592 127° Southeast 459 528 29,000  Level Jacksonville Center
01:28AM 34.5519 -82.1364 128° Southeast 459 528 29,000  Level Jacksonville Center
01:29AM 34.4781 -82.0161 127° Southeast 459 528 29,000  Level Jacksonville Center
01:30AM 34.4000 -81.8961 128° Southeast 459 528 29,000  Level Jacksonville Center
01:31AM 34.3217 -81.7764 128° Southeast 459 528 29,000 -660 Level Jacksonville Center
01:32AM 34.2475 -81.6542 126° Southeast 459 528 27,700 -1,680 Descending Jacksonville Center
01:33AM 34.1756 -81.5472 129° Southeast 439 505 25,700 -1,860 Descending Jacksonville Center
01:34AM 34.1097 -81.4428 127° Southeast 415 478 24,000 -1,320 Descending Jacksonville Center
01:35AM 34.0439 -81.3411 128° Southeast 396 456 23,100 -1,500 Descending Jacksonville Center
01:36AM 33.9800 -81.2447 129° Southeast 382 440 21,000 -2,100 Descending Jacksonville Center
01:37AM 33.9203 -81.1481 127° Southeast 369 425 19,000 -2,100 Descending Jacksonville Center
01:38AM 33.8606 -81.0569 128° Southeast 364 419 16,800 -2,160 Descending Jacksonville Center
01:39AM 33.7928 -80.9858 139° Southeast 338 389 14,700 -2,100 Descending Jacksonville Center
01:40AM 33.7250 -80.9147 139° Southeast 322 371 12,700 -1,860 Descending Jacksonville Center
01:41AM 33.6592 -80.8414 137° Southeast 322 371 11,000 -900 Descending Jacksonville Center
01:42AM 33.5933 -80.7731 139° Southeast 315 362 11,000  Level Jacksonville Center
01:43AM 33.5231 -80.6950 137° Southeast 326 375 11,000  Level Jacksonville Center
01:44AM 33.4508 -80.6197 139° Southeast 338 389 11,000  Level Jacksonville Center
01:45AM 33.3847 -80.5519 139° Southeast 333 383 11,000  Level Jacksonville Center
01:46AM 33.3231 -80.4864 138° Southeast 313 360 11,000 -300 Level Jacksonville Center
01:47AM 33.2858 -80.3953 116° Southeast 301 346 10,400 -1,500 Descending Jacksonville Center
01:48AM 33.2444 -80.3097 120° Southeast 301 346 8,100 -2,160 Descending Jacksonville Center
01:49AM 33.2094 -80.2286 117° Southeast 288 331 6,100 -1,860 Descending Jacksonville Center
01:50AM 33.1722 -80.1503 120° Southeast 277 319 4,400 -1,560 Descending Jacksonville Center
01:51AM 33.1392 -80.0744 117° Southeast 270 311 3,000 -780 Descending Jacksonville Center
01:52AM 33.1083 -80.0011 117° Southeast 258 297 2,900 -60 Descending Jacksonville Center
01:53AM 33.0739 -79.9503 129° Southeast 229 264 2,900  Level Jacksonville Center
01:55AM 32.9671 -79.9968 200° South  Level FlightAware Approximate
02:02AM 32.8986 -80.0405 187° South  Level Estimated
02:03AM 32.8986 -80.0405 187° South  Level Estimated
02:04AM 32.8986 -80.0405 187° South  Level Estimated
02:05AM 32.8986 -80.0405 187° South  Level Estimated
02:06AM 32.8986 -80.0405 187° South  Level Estimated
02:07AM 32.8986 -80.0405 187° South  Level Estimated